Time;durP1;ratioP1;P1;durP2;ratioP2;P2;SDS_P1;SDS_P2;PMS_P1;PMS_P2;Temp;Humidity;BMP_temperature;BMP_pressure;BME280_temperature;BME280_humidity;BME280_pressure;Samples;Min_cycle;Max_cycle;Signal;HPM_P1;HPM_P2
2022/05/24 00:00:18;;;;;;;19.67;10.40;;;10.70;99.90;;;;;;5052931;28;20659;-58
2022/05/24 00:02:44;;;;;;;14.67;9.60;;;10.70;99.90;;;;;;5052734;28;20287;-58
2022/05/24 00:05:10;;;;;;;19.23;10.97;;;10.70;99.90;;;;;;5053129;28;20200;-57
2022/05/24 00:07:38;;;;;;;20.17;10.17;;;10.60;99.90;;;;;;5053160;28;20523;-59
2022/05/24 00:10:06;;;;;;;17.67;10.10;;;10.60;99.90;;;;;;5052829;28;20628;-58
2022/05/24 00:12:32;;;;;;;20.90;10.10;;;10.50;99.90;;;;;;5053059;28;20645;-58
2022/05/24 00:17:45;;;;;;;20.20;9.97;;;10.40;99.90;;;;;;5052964;28;20197;-68
2022/05/24 00:20:11;;;;;;;16.23;10.33;;;10.30;99.90;;;;;;5052819;28;20174;-58
2022/05/24 00:22:37;;;;;;;14.73;10.13;;;10.20;99.90;;;;;;5052564;28;20242;-58
2022/05/24 00:25:03;;;;;;;16.17;10.10;;;10.20;99.90;;;;;;5052607;28;20188;-58
2022/05/24 00:27:30;;;;;;;18.57;10.77;;;10.10;99.90;;;;;;5051863;28;20179;-58
2022/05/24 00:29:56;;;;;;;22.57;10.37;;;10.10;99.90;;;;;;5052421;28;20186;-58
2022/05/24 00:32:22;;;;;;;17.33;11.07;;;10.00;99.90;;;;;;5052543;28;20192;-57
2022/05/24 00:34:48;;;;;;;18.87;11.17;;;10.10;99.90;;;;;;5052286;28;20190;-58
2022/05/24 00:37:16;;;;;;;19.43;10.80;;;10.10;99.90;;;;;;5052452;28;20177;-58
2022/05/24 00:39:41;;;;;;;16.70;10.40;;;10.00;99.90;;;;;;5052528;28;20174;-57
2022/05/24 00:42:21;;;;;;;18.90;10.70;;;9.90;99.90;;;;;;5052181;28;20190;-58
2022/05/24 00:44:54;;;;;;;17.97;10.67;;;10.00;99.90;;;;;;5052135;28;20535;-58
2022/05/24 00:47:31;;;;;;;18.57;11.13;;;10.00;99.90;;;;;;5052549;28;20230;-58
2022/05/24 00:50:01;;;;;;;20.20;11.50;;;10.00;99.90;;;;;;5052245;28;20181;-57
2022/05/24 00:52:33;;;;;;;21.60;12.30;;;10.00;99.90;;;;;;5052317;28;20179;-58
2022/05/24 00:55:02;;;;;;;18.83;11.57;;;9.90;99.90;;;;;;5052246;28;20190;-58
2022/05/24 00:57:42;;;;;;;16.63;11.57;;;9.90;99.90;;;;;;5052189;28;20177;-57
2022/05/24 01:00:15;;;;;;;19.33;11.70;;;9.80;99.90;;;;;;5052151;28;20257;-57
2022/05/24 01:02:43;;;;;;;18.03;10.87;;;9.70;99.90;;;;;;5051868;28;20664;-58
2022/05/24 01:05:13;;;;;;;22.67;11.83;;;9.60;99.90;;;;;;5051852;28;20173;-58
2022/05/24 01:07:38;;;;;;;17.33;10.83;;;9.40;99.90;;;;;;5052366;28;20238;-60
2022/05/24 01:10:12;;;;;;;21.30;12.10;;;9.40;99.90;;;;;;5051925;28;20185;-58
2022/05/24 01:12:50;;;;;;;18.67;11.67;;;9.30;99.90;;;;;;5050605;28;20257;-58
2022/05/24 01:15:17;;;;;;;21.33;11.50;;;9.30;99.90;;;;;;5051728;28;20181;-58
2022/05/24 01:17:44;;;;;;;20.00;11.57;;;9.30;99.90;;;;;;5051987;28;20215;-58
2022/05/24 01:20:11;;;;;;;17.57;11.10;;;9.20;99.90;;;;;;5051732;28;20179;-58
2022/05/24 01:22:57;;;;;;;18.60;11.47;;;9.20;99.90;;;;;;5051388;28;20292;-58
2022/05/24 01:25:30;;;;;;;18.73;11.63;;;9.30;99.90;;;;;;5051950;28;20176;-59
2022/05/24 01:27:57;;;;;;;17.40;11.33;;;9.20;99.90;;;;;;5051513;28;20204;-59
2022/05/24 01:30:23;;;;;;;22.43;12.53;;;9.10;99.90;;;;;;5051858;28;20196;-59
2022/05/24 01:38:20;;;;;;;22.60;11.80;;;8.80;99.90;;;;;;5051935;28;20194;-58
2022/05/24 01:40:48;;;;;;;17.27;10.17;;;8.90;99.90;;;;;;5055483;28;20603;-59
2022/05/24 01:43:20;;;;;;;22.57;11.80;;;9.00;99.90;;;;;;5055820;28;20219;-58
2022/05/24 01:45:53;;;;;;;22.03;12.17;;;9.10;99.90;;;;;;5055893;28;20251;-58
2022/05/24 01:48:25;;;;;;;23.20;11.80;;;9.00;99.90;;;;;;5055809;28;20176;-59
2022/05/24 01:50:52;;;;;;;20.43;12.20;;;9.10;99.90;;;;;;5055625;28;20307;-59
2022/05/24 01:53:22;;;;;;;22.00;10.97;;;9.00;99.90;;;;;;5055416;28;20203;-59
2022/05/24 01:55:52;;;;;;;20.13;11.57;;;9.00;99.90;;;;;;5055656;28;20179;-59
2022/05/24 01:58:23;;;;;;;18.13;10.53;;;8.90;99.90;;;;;;5055409;28;20184;-58
2022/05/24 02:00:58;;;;;;;18.40;10.53;;;8.90;99.90;;;;;;5055349;28;20238;-59
2022/05/24 02:03:24;;;;;;;19.73;10.10;;;8.80;99.90;;;;;;5055352;28;20202;-58
2022/05/24 02:05:50;;;;;;;19.10;10.37;;;8.80;99.90;;;;;;5054914;28;20191;-58
2022/05/24 02:08:16;;;;;;;22.00;11.07;;;8.80;99.90;;;;;;5055520;28;20218;-58
2022/05/24 02:10:43;;;;;;;16.83;10.90;;;8.80;99.90;;;;;;5055249;28;20223;-58
2022/05/24 02:13:10;;;;;;;17.23;10.63;;;8.70;99.90;;;;;;5052146;28;20188;-58
2022/05/24 02:15:39;;;;;;;20.17;10.77;;;8.60;99.90;;;;;;5044193;28;20549;-58
2022/05/24 02:18:13;;;;;;;18.93;10.43;;;8.60;99.90;;;;;;5034692;28;20675;-59
2022/05/24 02:20:42;;;;;;;15.80;9.77;;;8.50;99.90;;;;;;5035132;28;20186;-59
2022/05/24 02:23:10;;;;;;;21.93;11.40;;;8.40;99.90;;;;;;5034281;28;20250;-58
2022/05/24 02:25:57;;;;;;;22.53;11.20;;;8.40;99.90;;;;;;5035096;28;20194;-58
2022/05/24 02:28:29;;;;;;;21.97;12.50;;;8.40;99.90;;;;;;5034802;28;20264;-59
2022/05/24 02:31:12;;;;;;;22.77;12.33;;;8.30;99.90;;;;;;5034793;28;20187;-58
2022/05/24 02:33:38;;;;;;;21.87;12.17;;;8.40;99.90;;;;;;5054459;28;20189;-58
2022/05/24 02:36:05;;;;;;;23.73;12.47;;;8.40;99.90;;;;;;5054660;28;20701;-58
2022/05/24 02:38:31;;;;;;;26.17;12.20;;;8.40;99.90;;;;;;5054536;28;20210;-58
2022/05/24 02:43:41;;;;;;;24.50;12.83;;;8.50;99.90;;;;;;5054700;28;20325;-59
2022/05/24 02:46:08;;;;;;;21.50;12.70;;;8.50;99.90;;;;;;5054426;28;20682;-59
2022/05/24 02:48:36;;;;;;;19.80;12.07;;;8.50;99.90;;;;;;5054540;28;20583;-59
2022/05/24 02:51:02;;;;;;;21.20;12.90;;;8.50;99.90;;;;;;5053537;28;20599;-58
2022/05/24 02:53:27;;;;;;;24.47;12.60;;;8.50;99.90;;;;;;5054634;28;20215;-59
2022/05/24 02:55:53;;;;;;;25.17;13.30;;;8.40;99.90;;;;;;5054324;28;20188;-59
2022/05/24 02:58:19;;;;;;;24.03;13.07;;;8.50;99.90;;;;;;5054410;28;20636;-59
2022/05/24 03:00:44;;;;;;;25.07;12.97;;;8.50;99.90;;;;;;5054151;28;20182;-59
2022/05/24 03:03:10;;;;;;;25.17;12.67;;;8.50;99.90;;;;;;5053924;28;20265;-59
2022/05/24 03:05:36;;;;;;;25.97;13.20;;;8.50;99.90;;;;;;5052685;28;20642;-57
2022/05/24 03:10:47;;;;;;;18.90;12.20;;;8.70;99.90;;;;;;5054193;28;20190;-57
2022/05/24 03:15:57;;;;;;;20.60;11.63;;;8.90;99.90;;;;;;5053885;28;20198;-58
2022/05/24 03:18:24;;;;;;;19.40;10.60;;;8.90;99.90;;;;;;5053777;28;20710;-58
2022/05/24 03:20:49;;;;;;;18.23;11.33;;;9.00;99.90;;;;;;5053924;28;20195;-58
2022/05/24 03:23:16;;;;;;;19.97;11.73;;;9.00;99.90;;;;;;5053450;28;20593;-58
2022/05/24 03:25:42;;;;;;;20.60;12.27;;;9.10;99.90;;;;;;5053746;28;20211;-58
2022/05/24 03:28:09;;;;;;;20.83;11.40;;;9.10;99.90;;;;;;5053315;28;20180;-58
2022/05/24 03:30:43;;;;;;;22.03;12.10;;;9.10;99.90;;;;;;5053342;28;20181;-58
2022/05/24 03:33:09;;;;;;;20.17;11.23;;;9.20;99.90;;;;;;5052988;28;20269;-59
2022/05/24 03:35:36;;;;;;;24.37;10.73;;;9.20;99.90;;;;;;5053753;28;20176;-58
2022/05/24 03:38:02;;;;;;;18.70;10.13;;;9.30;99.90;;;;;;5052991;28;20506;-58
2022/05/24 03:40:29;;;;;;;18.27;10.80;;;9.40;99.90;;;;;;5053284;28;20188;-57
2022/05/24 03:42:55;;;;;;;24.90;11.97;;;9.40;99.90;;;;;;5052786;28;20633;-58
2022/05/24 03:45:21;;;;;;;25.30;11.30;;;9.50;99.90;;;;;;5053054;28;20233;-58
2022/05/24 03:47:47;;;;;;;27.87;11.27;;;9.60;99.90;;;;;;5052951;28;20184;-58
2022/05/24 03:50:14;;;;;;;19.13;10.20;;;9.70;99.90;;;;;;5052989;28;20246;-58
2022/05/24 03:52:40;;;;;;;16.17;9.80;;;9.70;99.90;;;;;;5052783;28;20189;-60
2022/05/24 03:55:06;;;;;;;16.53;9.43;;;9.80;99.90;;;;;;5051940;28;20269;-59
2022/05/24 04:00:18;;;;;;;15.37;9.63;;;9.90;99.90;;;;;;5052013;28;20222;-59
2022/05/24 04:02:45;;;;;;;17.73;9.03;;;9.80;99.90;;;;;;5051566;28;20208;-59
2022/05/24 04:05:11;;;;;;;18.97;9.63;;;9.90;99.90;;;;;;5052162;28;20190;-59
2022/05/24 04:07:38;;;;;;;14.97;9.43;;;10.00;99.90;;;;;;5052593;28;20187;-59
2022/05/24 04:10:07;;;;;;;16.87;9.73;;;10.10;99.90;;;;;;5052137;28;20576;-55
2022/05/24 04:12:34;;;;;;;13.60;8.53;;;10.20;99.90;;;;;;5051588;28;20183;-58
2022/05/24 04:15:00;;;;;;;14.43;8.43;;;10.30;99.90;;;;;;5052443;28;20215;-58
2022/05/24 04:17:25;;;;;;;15.57;9.00;;;10.40;99.90;;;;;;5051772;28;20249;-60
2022/05/24 04:19:51;;;;;;;14.27;9.10;;;10.50;99.90;;;;;;5052385;28;20231;-59
2022/05/24 04:22:17;;;;;;;16.73;10.13;;;10.60;99.90;;;;;;5051360;28;20225;-59
2022/05/24 04:24:43;;;;;;;15.47;9.20;;;10.70;99.90;;;;;;5050030;28;20253;-60
2022/05/24 04:27:09;;;;;;;20.23;9.63;;;10.70;99.90;;;;;;5049326;28;20186;-59
2022/05/24 04:29:39;;;;;;;22.33;10.10;;;10.80;99.90;;;;;;5049302;28;20536;-59
2022/05/24 04:32:05;;;;;;;20.20;8.47;;;10.80;99.90;;;;;;5049000;28;20320;-60
2022/05/24 04:34:31;;;;;;;15.43;8.63;;;10.90;99.90;;;;;;5047942;28;20271;-59
2022/05/24 04:36:56;;;;;;;13.93;8.30;;;10.90;99.90;;;;;;5049322;28;20266;-64
2022/05/24 04:39:22;;;;;;;15.33;8.67;;;11.00;99.90;;;;;;5049386;28;20688;-58
2022/05/24 04:44:32;;;;;;;15.10;8.53;;;11.00;99.90;;;;;;5048678;28;20684;-60
2022/05/24 04:47:07;;;;;;;13.30;8.40;;;11.10;99.90;;;;;;5048435;28;20275;-67
2022/05/24 04:49:33;;;;;;;14.63;9.00;;;11.10;99.90;;;;;;5049477;28;20218;-63
2022/05/24 04:51:59;;;;;;;13.33;7.97;;;11.30;99.90;;;;;;5047834;28;20711;-60
2022/05/24 04:54:25;;;;;;;18.67;8.87;;;11.50;99.90;;;;;;5049526;28;20190;-60
2022/05/24 04:56:50;;;;;;;23.33;9.90;;;11.60;99.90;;;;;;5049724;28;20270;-60
2022/05/24 04:59:16;;;;;;;21.50;9.93;;;11.70;99.90;;;;;;5050518;28;20238;-58
2022/05/24 05:01:43;;;;;;;15.03;8.70;;;11.70;99.90;;;;;;5049001;28;20212;-60
2022/05/24 05:04:09;;;;;;;18.70;9.97;;;11.80;99.90;;;;;;5050130;28;20257;-60
2022/05/24 05:06:35;;;;;;;19.37;9.80;;;11.90;99.90;;;;;;5049753;28;20280;-59
2022/05/24 05:09:01;;;;;;;17.03;9.60;;;12.00;99.90;;;;;;5050211;28;20193;-60
2022/05/24 05:11:26;;;;;;;15.23;9.17;;;12.20;99.90;;;;;;5051021;28;20659;-58
2022/05/24 05:13:52;;;;;;;26.23;10.83;;;12.10;99.90;;;;;;5049957;28;20205;-59
2022/05/24 05:16:18;;;;;;;21.87;10.33;;;12.20;99.90;;;;;;5050406;28;20180;-60
2022/05/24 05:18:44;;;;;;;22.23;9.77;;;12.30;99.90;;;;;;5050798;28;20694;-59
2022/05/24 05:21:10;;;;;;;20.27;9.20;;;12.50;99.90;;;;;;5050083;28;20185;-59
2022/05/24 05:23:36;;;;;;;25.73;10.53;;;12.50;99.90;;;;;;5050448;28;20322;-59
2022/05/24 05:26:03;;;;;;;19.00;9.40;;;12.50;99.90;;;;;;5048396;28;20257;-59
2022/05/24 05:28:28;;;;;;;15.17;9.90;;;12.70;99.90;;;;;;5050212;28;20193;-60
2022/05/24 05:33:39;;;;;;;17.03;8.23;;;12.70;99.90;;;;;;5050901;28;20609;-59
2022/05/24 05:36:05;;;;;;;16.30;8.17;;;12.80;99.90;;;;;;5050107;28;20187;-60
2022/05/24 05:38:31;;;;;;;21.63;13.03;;;12.90;99.90;;;;;;5050601;28;20222;-59
2022/05/24 05:40:58;;;;;;;24.30;10.80;;;13.00;99.90;;;;;;5050561;28;20198;-59
2022/05/24 05:43:24;;;;;;;18.17;9.10;;;13.10;99.90;;;;;;5050038;28;20210;-59
2022/05/24 05:45:55;;;;;;;20.50;8.30;;;13.20;99.90;;;;;;5048571;28;20194;-60
2022/05/24 05:48:22;;;;;;;12.37;7.87;;;13.20;99.90;;;;;;5050124;28;20384;-60
2022/05/24 05:50:48;;;;;;;25.80;8.20;;;13.30;99.90;;;;;;5042491;28;20183;-60
2022/05/24 05:53:15;;;;;;;14.17;7.70;;;13.30;99.90;;;;;;5059260;28;20289;-58
2022/05/24 05:55:41;;;;;;;16.70;8.03;;;13.50;99.90;;;;;;5053787;28;20630;-58
2022/05/24 05:58:08;;;;;;;16.43;7.83;;;13.60;99.90;;;;;;5067552;28;20650;-59
2022/05/24 06:00:35;;;;;;;18.67;7.13;;;13.80;99.90;;;;;;5051958;28;20186;-59
2022/05/24 06:03:01;;;;;;;9.03;6.30;;;13.80;99.90;;;;;;5069745;28;20631;-60
2022/05/24 06:05:27;;;;;;;21.93;7.47;;;13.90;99.90;;;;;;5064284;28;20225;-61
2022/05/24 06:07:54;;;;;;;14.07;6.33;;;13.90;99.90;;;;;;5064921;28;20209;-59
2022/05/24 06:10:20;;;;;;;10.03;6.77;;;13.90;99.90;;;;;;5069450;28;20194;-60
2022/05/24 06:12:47;;;;;;;12.57;6.30;;;13.90;99.90;;;;;;5069992;28;20303;-59
2022/05/24 06:15:12;;;;;;;12.23;7.43;;;14.00;99.90;;;;;;5055948;28;20217;-60
2022/05/24 06:17:44;;;;;;;12.03;7.40;;;14.20;99.90;;;;;;5064051;28;20236;-59
2022/05/24 06:20:10;;;;;;;13.40;6.77;;;14.20;99.90;;;;;;5065010;28;20190;-58
2022/05/24 06:22:36;;;;;;;18.57;7.43;;;14.20;99.90;;;;;;5057470;28;20245;-59
2022/05/24 06:25:02;;;;;;;24.13;8.10;;;14.20;99.90;;;;;;5057407;28;20198;-64
2022/05/24 06:27:28;;;;;;;13.87;6.53;;;14.40;99.90;;;;;;5072622;28;20185;-58
2022/05/24 06:29:54;;;;;;;17.47;7.43;;;14.50;99.90;;;;;;5071889;28;20494;-60
2022/05/24 06:32:20;;;;;;;21.00;7.43;;;14.60;99.90;;;;;;5045835;28;20186;-59
2022/05/24 06:34:48;;;;;;;11.60;6.83;;;14.60;99.90;;;;;;5062005;28;20617;-58
2022/05/24 06:37:15;;;;;;;11.47;7.03;;;14.50;99.90;;;;;;5072003;28;20505;-59
2022/05/24 06:39:41;;;;;;;21.97;7.47;;;14.50;99.90;;;;;;5072793;28;20190;-60
2022/05/24 06:42:07;;;;;;;21.93;8.07;;;14.50;99.90;;;;;;5072757;28;20210;-61
2022/05/24 06:44:33;;;;;;;16.53;6.70;;;14.60;99.90;;;;;;5072434;28;20318;-59
2022/05/24 06:46:59;;;;;;;9.93;6.30;;;14.80;99.90;;;;;;5066055;28;20354;-59
2022/05/24 06:49:25;;;;;;;16.53;7.67;;;14.90;99.90;;;;;;5068870;28;20712;-58
2022/05/24 06:51:51;;;;;;;14.57;7.13;;;15.00;99.90;;;;;;5072725;28;20200;-61
2022/05/24 06:54:17;;;;;;;34.13;9.47;;;15.10;99.90;;;;;;5072706;28;20216;-60
2022/05/24 06:56:42;;;;;;;16.67;7.17;;;15.30;99.90;;;;;;5072848;28;20186;-60
2022/05/24 07:04:38;;;;;;;14.83;7.73;;;15.50;99.90;;;;;;5064204;28;20322;-60
2022/05/24 07:07:04;;;;;;;15.57;6.60;;;15.50;99.90;;;;;;5050900;28;20207;-65
2022/05/24 07:09:31;;;;;;;26.63;7.57;;;15.60;99.90;;;;;;5052842;28;20174;-61
2022/05/24 07:11:58;;;;;;;11.80;6.37;;;15.80;99.90;;;;;;5052301;28;20210;-60
2022/05/24 07:14:24;;;;;;;10.73;5.03;;;16.10;99.90;;;;;;5052785;28;20210;-60
2022/05/24 07:16:51;;;;;;;11.73;5.17;;;16.00;99.90;;;;;;5051501;28;20300;-60
2022/05/24 07:19:17;;;;;;;11.33;4.77;;;16.10;99.90;;;;;;5052486;28;20199;-61
2022/05/24 07:21:44;;;;;;;14.03;5.33;;;16.10;99.90;;;;;;5052661;28;20194;-63
2022/05/24 07:24:10;;;;;;;10.33;4.63;;;16.10;99.90;;;;;;5052355;28;20284;-59
2022/05/24 07:26:36;;;;;;;6.87;3.73;;;16.30;99.90;;;;;;5052691;28;20638;-60
2022/05/24 07:29:03;;;;;;;12.50;4.80;;;16.30;99.90;;;;;;5051989;28;20260;-59
2022/05/24 07:31:29;;;;;;;13.30;4.43;;;16.50;99.90;;;;;;5052047;28;20180;-64
2022/05/24 07:33:55;;;;;;;16.43;4.37;;;16.60;99.90;;;;;;5052329;28;20506;-60
2022/05/24 07:36:21;;;;;;;7.07;3.50;;;16.60;99.90;;;;;;5051943;28;20189;-60
2022/05/24 07:38:47;;;;;;;8.87;3.87;;;16.50;99.90;;;;;;5052044;28;20193;-62
2022/05/24 07:46:41;;;;;;;7.13;2.77;;;16.70;99.90;;;;;;5052350;28;20182;-66
2022/05/24 07:49:06;;;;;;;9.20;3.10;;;16.70;99.90;;;;;;5030944;28;20561;-61
2022/05/24 07:51:32;;;;;;;13.70;4.17;;;16.80;99.90;;;;;;5031748;28;20539;-62
2022/05/24 07:53:58;;;;;;;15.57;4.53;;;17.00;99.90;;;;;;5032217;28;20263;-64
2022/05/24 07:56:24;;;;;;;9.10;3.40;;;17.00;99.90;;;;;;5031845;28;20563;-63
2022/05/24 07:58:51;;;;;;;8.87;3.60;;;17.00;99.70;;;;;;5032216;28;20683;-62
2022/05/24 08:01:16;;;;;;;17.70;4.33;;;17.10;99.90;;;;;;5032093;28;20310;-61
2022/05/24 08:03:43;;;;;;;12.10;4.20;;;17.20;99.40;;;;;;5031621;28;20294;-63
2022/05/24 08:06:10;;;;;;;16.57;5.63;;;17.20;99.90;;;;;;5054738;28;20820;-61
2022/05/24 08:08:36;;;;;;;9.63;4.30;;;17.30;99.90;;;;;;5071659;28;20524;-63
2022/05/24 08:11:02;;;;;;;7.20;3.40;;;17.40;98.80;;;;;;5071996;28;20197;-61
2022/05/24 08:13:28;;;;;;;10.30;3.60;;;17.50;97.60;;;;;;5071308;28;20554;-62
2022/05/24 08:15:56;;;;;;;5.93;3.17;;;17.60;97.50;;;;;;5069917;28;20276;-66
2022/05/24 08:18:22;;;;;;;12.57;3.03;;;17.50;97.00;;;;;;5058694;28;20506;-66
2022/05/24 08:20:48;;;;;;;10.03;3.60;;;17.50;97.20;;;;;;5050109;28;20186;-66
2022/05/24 08:23:15;;;;;;;12.40;3.80;;;17.50;97.40;;;;;;5050235;28;20234;-61
2022/05/24 08:25:40;;;;;;;10.80;3.33;;;17.60;97.20;;;;;;5051673;28;20384;-61
2022/05/24 08:28:07;;;;;;;9.57;3.20;;;17.70;96.90;;;;;;5051489;28;20701;-58
2022/05/24 08:30:36;;;;;;;11.13;3.97;;;17.80;96.80;;;;;;5051384;28;20285;-59
2022/05/24 08:33:04;;;;;;;10.70;3.50;;;17.80;96.80;;;;;;5050844;28;20178;-59
2022/05/24 08:35:32;;;;;;;5.23;3.00;;;17.90;96.70;;;;;;5050869;28;20225;-62
2022/05/24 08:37:59;;;;;;;7.27;3.00;;;18.10;96.90;;;;;;5051339;28;20181;-60
2022/05/24 08:40:25;;;;;;;11.90;3.10;;;18.30;95.50;;;;;;5051423;28;20175;-60
2022/05/24 08:43:14;;;;;;;6.63;3.17;;;18.40;95.50;;;;;;5051411;28;20255;-62
2022/05/24 08:48:46;;;;;;;13.27;4.33;;;18.60;97.50;;;;;;5050177;28;20193;-61
2022/05/24 08:51:23;;;;;;;6.07;3.03;;;19.00;95.40;;;;;;5050462;28;20174;-60
2022/05/24 08:53:53;;;;;;;8.30;3.57;;;19.10;93.60;;;;;;5050448;28;20220;-60
2022/05/24 08:56:26;;;;;;;10.15;3.70;;;19.20;93.80;;;;;;5050279;28;20182;-59
2022/05/24 08:58:59;;;;;;;17.80;4.03;;;19.40;93.80;;;;;;5050673;28;20194;-59
2022/05/24 09:01:32;;;;;;;12.48;3.80;;;19.40;93.40;;;;;;5049736;28;20206;-61
2022/05/24 09:04:05;;;;;;;10.45;3.47;;;19.30;94.00;;;;;;5050627;28;20236;-60
2022/05/24 09:06:58;;;;;;;9.77;3.40;;;19.30;93.70;;;;;;5064455;28;20189;-60
2022/05/24 09:09:28;;;;;;;6.93;3.88;;;19.40;92.60;;;;;;5064508;28;20681;-60
2022/05/24 09:12:20;;;;;;;10.15;3.72;;;19.60;92.80;;;;;;5069503;28;20549;-60
2022/05/24 09:14:59;;;;;;;11.18;3.30;;;19.90;92.20;;;;;;5069022;28;20186;-60
2022/05/24 09:18:03;;;;;;;14.52;3.05;;;20.40;90.10;;;;;;5066406;28;20216;-61
2022/05/24 09:20:31;;;;;;;6.20;3.70;;;20.80;89.00;;;;;;5048865;28;20616;-61
2022/05/24 09:23:16;;;;;;;8.32;3.28;;;21.00;87.40;;;;;;5050097;28;20232;-60
2022/05/24 09:26:03;;;;;;;7.82;3.55;;;21.20;81.60;;;;;;5050166;28;20227;-59
2022/05/24 09:28:57;;;;;;;9.30;3.15;;;21.00;80.90;;;;;;5050414;28;20186;-65
2022/05/24 09:31:46;;;;;;;5.25;3.10;;;20.80;81.20;;;;;;5049681;28;20194;-59
2022/05/24 09:34:18;;;;;;;11.77;3.85;;;20.60;82.80;;;;;;5049576;28;20198;-62
2022/05/24 09:37:10;;;;;;;12.52;3.15;;;20.90;82.20;;;;;;5050398;28;20526;-59
2022/05/24 09:39:54;;;;;;;4.20;2.72;;;20.80;80.80;;;;;;5049953;28;20179;-60
2022/05/24 09:42:28;;;;;;;4.90;2.22;;;20.50;81.90;;;;;;5048597;28;20243;-61
2022/05/24 09:44:58;;;;;;;7.78;2.60;;;20.50;80.00;;;;;;5050376;28;20218;-62
2022/05/24 09:47:27;;;;;;;6.70;3.75;;;20.40;80.20;;;;;;5048293;28;20273;-59
2022/05/24 09:49:54;;;;;;;16.60;5.50;;;20.50;80.30;;;;;;5050073;28;20177;-59
2022/05/24 09:52:21;;;;;;;10.10;2.83;;;20.70;80.00;;;;;;5049728;28;20186;-58
2022/05/24 09:55:00;;;;;;;9.35;2.95;;;20.70;78.70;;;;;;5049738;28;20189;-61
2022/05/24 09:57:33;;;;;;;10.45;3.67;;;20.60;79.30;;;;;;5048945;28;20256;-60
2022/05/24 10:00:06;;;;;;;9.07;2.70;;;20.80;77.70;;;;;;5050847;28;20281;-61
2022/05/24 10:02:34;;;;;;;7.95;3.20;;;20.80;76.00;;;;;;5053885;28;20276;-60
2022/05/24 10:05:03;;;;;;;4.55;2.38;;;21.10;75.20;;;;;;5055798;28;20210;-60
2022/05/24 10:07:34;;;;;;;6.07;3.05;;;21.40;74.90;;;;;;5073026;28;20198;-62
2022/05/24 10:10:12;;;;;;;8.85;3.30;;;21.40;72.40;;;;;;5073753;28;20177;-60
2022/05/24 10:13:14;;;;;;;6.50;2.60;;;21.50;72.80;;;;;;5073858;28;20177;-60
2022/05/24 10:16:07;;;;;;;9.93;2.60;;;21.30;69.50;;;;;;5073755;28;20529;-60
2022/05/24 10:18:52;;;;;;;1.83;1.40;;;21.20;72.00;;;;;;5063783;28;20182;-60
2022/05/24 10:21:39;;;;;;;4.55;2.10;;;21.00;69.40;;;;;;5053293;28;20240;-60
2022/05/24 10:24:33;;;;;;;3.55;2.10;;;20.90;71.20;;;;;;5053384;28;20237;-61
2022/05/24 10:27:31;;;;;;;6.95;4.03;;;20.80;72.90;;;;;;5053469;28;20210;-59
2022/05/24 10:30:19;;;;;;;4.68;2.17;;;20.60;74.00;;;;;;5044365;28;20194;-61
2022/05/24 10:38:53;;;;;;;11.23;3.50;;;21.50;71.00;;;;;;5053350;28;20197;-61
2022/05/24 10:41:26;;;;;;;13.50;3.55;;;22.00;70.20;;;;;;5051932;28;20269;-61
2022/05/24 10:43:58;;;;;;;10.40;4.20;;;22.40;67.60;;;;;;5053206;28;20225;-60
2022/05/24 10:46:49;;;;;;;10.98;2.45;;;22.70;66.10;;;;;;5052350;28;20205;-61
2022/05/24 10:49:39;;;;;;;8.80;2.00;;;22.90;63.10;;;;;;5053027;28;20214;-68
2022/05/24 10:52:12;;;;;;;4.20;1.73;;;23.20;63.30;;;;;;5052920;28;20193;-60
2022/05/24 10:54:58;;;;;;;6.25;2.08;;;22.80;61.70;;;;;;5052954;28;20187;-61
2022/05/24 10:57:36;;;;;;;5.20;1.20;;;22.50;63.00;;;;;;5052852;28;20178;-59
2022/05/24 11:00:22;;;;;;;14.18;2.08;;;22.40;57.60;;;;;;5053010;28;20174;-60
2022/05/24 11:02:51;;;;;;;8.13;2.55;;;22.60;59.20;;;;;;5053096;28;20263;-59
2022/05/24 11:05:23;;;;;;;7.35;2.95;;;22.70;60.20;;;;;;5056629;28;20259;-67
2022/05/24 11:07:57;;;;;;;5.20;2.60;;;23.00;61.30;;;;;;5072845;28;20314;-61
2022/05/24 11:10:28;;;;;;;3.25;2.30;;;23.30;60.00;;;;;;5071215;28;20264;-59
2022/05/24 11:13:01;;;;;;;12.63;2.95;;;23.70;59.60;;;;;;5072170;28;20311;-61
2022/05/24 11:15:45;;;;;;;3.30;2.30;;;24.10;58.90;;;;;;5053594;28;20213;-62
2022/05/24 11:18:18;;;;;;;5.15;1.83;;;24.80;57.60;;;;;;5070236;28;20351;-60
2022/05/24 11:20:55;;;;;;;4.70;2.10;;;25.50;55.20;;;;;;5052614;28;20186;-59
2022/05/24 11:23:36;;;;;;;9.00;2.10;;;26.30;52.70;;;;;;5052037;28;20552;-59
2022/05/24 11:26:30;;;;;;;8.55;2.50;;;28.10;49.20;;;;;;5052018;28;20257;-62
2022/05/24 11:29:10;;;;;;;3.20;1.45;;;29.20;46.60;;;;;;5052441;28;20526;-60
2022/05/24 11:31:45;;;;;;;3.95;1.50;;;30.80;42.70;;;;;;5051871;28;20166;-60
2022/05/24 11:34:21;;;;;;;3.90;1.98;;;31.30;40.60;;;;;;5052246;28;20174;-61
2022/05/24 11:37:25;;;;;;;2.97;1.20;;;31.80;39.10;;;;;;5052523;28;20202;-59
2022/05/24 11:39:52;;;;;;;6.43;1.98;;;32.80;38.00;;;;;;5052310;28;20598;-59
2022/05/24 11:42:42;;;;;;;4.80;1.90;;;32.70;37.70;;;;;;5051162;28;20221;-68
2022/05/24 11:45:30;;;;;;;4.78;1.65;;;32.30;37.60;;;;;;5052203;28;20217;-61
2022/05/24 11:48:00;;;;;;;8.00;2.10;;;33.60;36.90;;;;;;5052168;28;20258;-59
2022/05/24 11:50:31;;;;;;;6.10;1.50;;;34.80;35.00;;;;;;5051838;28;20220;-58
2022/05/24 11:53:15;;;;;;;8.07;1.70;;;32.60;35.10;;;;;;5041066;28;20991;-59
2022/05/24 11:55:56;;;;;;;7.10;1.98;;;30.00;39.10;;;;;;5041164;28;20863;-60
2022/05/24 11:58:24;;;;;;;3.85;1.60;;;29.60;40.50;;;;;;5032260;28;20476;-59
2022/05/24 12:01:08;;;;;;;11.57;2.35;;;30.20;38.50;;;;;;5031467;28;20200;-60
2022/05/24 12:10:21;;;;;;;11.02;2.55;;;34.20;35.10;;;;;;5050709;28;20344;-59
2022/05/24 12:12:55;;;;;;;8.70;2.13;;;35.70;34.80;;;;;;5040248;28;20235;-59
2022/05/24 12:15:25;;;;;;;4.05;1.67;;;36.30;32.60;;;;;;5035824;28;20190;-67
2022/05/24 12:18:00;;;;;;;10.52;2.17;;;36.20;31.70;;;;;;5050534;28;20178;-61
2022/05/24 12:20:35;;;;;;;8.88;1.85;;;36.50;31.60;;;;;;5050847;28;20240;-59
2022/05/24 12:23:06;;;;;;;13.57;3.22;;;36.60;30.20;;;;;;5058114;28;20232;-60
2022/05/24 12:26:02;;;;;;;7.25;1.88;;;37.10;31.00;;;;;;5051014;28;20224;-59
2022/05/24 12:28:37;;;;;;;2.88;1.67;;;37.30;30.20;;;;;;5068550;28;20184;-60
2022/05/24 12:31:23;;;;;;;5.35;2.30;;;38.10;30.00;;;;;;5067062;28;20188;-61
2022/05/24 12:33:57;;;;;;;6.38;2.88;;;37.40;29.70;;;;;;5045382;28;20322;-59
2022/05/24 12:36:41;;;;;;;5.28;1.50;;;37.00;29.60;;;;;;5055564;28;20192;-60
2022/05/24 12:39:07;;;;;;;3.28;1.63;;;37.30;29.80;;;;;;5070248;28;20185;-60
2022/05/24 12:41:39;;;;;;;11.45;2.75;;;37.60;29.90;;;;;;5070310;28;20264;-59
2022/05/24 12:44:18;;;;;;;4.80;1.85;;;37.80;30.30;;;;;;5070985;28;20213;-62
2022/05/24 12:47:04;;;;;;;1.75;1.20;;;37.90;28.80;;;;;;5070387;28;20191;-58
2022/05/24 12:49:33;;;;;;;6.30;1.70;;;35.70;29.50;;;;;;5056252;28;20208;-60
2022/05/24 12:52:12;;;;;;;2.28;1.33;;;36.10;30.10;;;;;;5049601;28;20198;-59
2022/05/24 12:54:46;;;;;;;17.50;2.58;;;37.60;28.90;;;;;;5062344;28;20194;-59
2022/05/24 12:57:18;;;;;;;4.97;1.40;;;39.10;28.20;;;;;;5063913;28;20192;-60
2022/05/24 12:59:52;;;;;;;11.07;2.58;;;39.10;28.00;;;;;;5070395;28;20204;-66
2022/05/24 13:02:28;;;;;;;3.85;1.60;;;39.30;28.10;;;;;;5067012;28;20530;-59
2022/05/24 13:05:00;;;;;;;3.38;1.30;;;38.40;28.00;;;;;;5061057;28;20292;-59
2022/05/24 13:07:49;;;;;;;7.35;1.65;;;36.00;28.50;;;;;;5069669;28;20243;-60
2022/05/24 13:10:23;;;;;;;10.52;2.13;;;34.20;30.40;;;;;;5064519;28;20216;-60
2022/05/24 13:12:52;;;;;;;5.78;2.15;;;33.10;33.70;;;;;;5062053;28;20218;-58
2022/05/24 13:15:22;;;;;;;7.30;1.80;;;33.50;31.90;;;;;;5059075;28;20186;-59
2022/05/24 13:17:53;;;;;;;13.52;3.28;;;34.80;30.90;;;;;;5068289;28;20214;-59
2022/05/24 13:20:22;;;;;;;5.07;1.27;;;36.60;30.20;;;;;;5070053;28;20193;-59
2022/05/24 13:22:53;;;;;;;5.95;2.28;;;36.70;28.70;;;;;;5045729;28;20367;-60
2022/05/24 13:25:23;;;;;;;5.65;1.50;;;37.20;29.00;;;;;;5050513;28;20186;-59
2022/05/24 13:28:02;;;;;;;4.68;1.90;;;37.20;28.80;;;;;;5057129;28;20190;-59
2022/05/24 13:33:47;;;;;;;5.65;1.48;;;35.60;30.10;;;;;;5069579;28;20203;-67
2022/05/24 13:36:12;;;;;;;3.35;1.60;;;37.60;28.90;;;;;;5043852;28;20250;-65
2022/05/24 13:38:40;;;;;;;7.15;3.33;;;38.20;28.70;;;;;;5056413;28;20261;-59
2022/05/24 13:41:08;;;;;;;18.02;2.92;;;39.70;28.00;;;;;;5060713;28;20251;-60
2022/05/24 13:43:41;;;;;;;8.40;2.20;;;40.20;27.20;;;;;;5068846;28;20215;-61
2022/05/24 13:46:19;;;;;;;4.60;1.40;;;41.50;27.10;;;;;;5070473;28;20302;-62
2022/05/24 13:48:56;;;;;;;19.25;3.50;;;41.00;26.60;;;;;;5069980;28;20303;-60
2022/05/24 13:51:34;;;;;;;12.50;2.13;;;41.10;26.80;;;;;;5051947;28;20197;-67